createdAt,value
2022-08-21T00:00:32.326Z,95425.67
2022-08-21T00:04:22.257Z,95426.67
2022-08-21T00:08:10.224Z,95424.75
2022-08-21T00:11:58.106Z,95423.88
2022-08-21T00:15:45.641Z,95423.69
2022-08-21T00:19:33.152Z,95424.36
2022-08-21T00:23:20.316Z,95422.21
2022-08-21T00:27:07.876Z,95418.83
2022-08-21T00:30:55.358Z,95412.64
2022-08-21T00:34:42.846Z,95412.35
2022-08-21T00:38:30.024Z,95416.41
2022-08-21T00:42:17.472Z,95418.98
2022-08-21T00:46:05.089Z,95417.85
2022-08-21T00:49:52.563Z,95415.73
2022-08-21T00:53:40.158Z,95418.20
2022-08-21T00:57:07.521Z,95415.00
2022-08-21T01:00:55.561Z,95403.39
2022-08-21T01:04:43.106Z,95395.02
2022-08-21T01:08:30.577Z,95393.81
2022-08-21T01:12:18.180Z,95390.17
2022-08-21T01:16:05.261Z,95381.23
2022-08-21T01:19:40.428Z,95379.37
2022-08-21T01:23:27.900Z,95383.80
2022-08-21T01:27:15.381Z,95388.02
2022-08-21T01:31:05.797Z,95390.06
2022-08-21T01:34:52.666Z,95391.39
2022-08-21T01:38:40.329Z,95404.13
2022-08-21T01:42:27.562Z,95408.41
2022-08-21T01:46:14.138Z,95409.20
2022-08-21T01:50:01.605Z,95412.52
2022-08-21T01:53:49.203Z,95412.36
2022-08-21T01:57:36.707Z,95411.45
2022-08-21T02:05:55.424Z,95419.09
2022-08-21T02:09:45.726Z,95415.87
2022-08-21T02:13:33.002Z,95409.15
2022-08-21T02:17:19.845Z,95393.59
2022-08-21T02:21:10.193Z,95400.78
2022-08-21T02:24:57.422Z,95411.81
2022-08-21T02:28:44.949Z,95418.80
2022-08-21T02:32:32.109Z,95420.52
2022-08-21T02:36:19.380Z,95426.86
2022-08-21T02:40:06.978Z,95432.20
2022-08-21T02:43:54.547Z,95435.88
2022-08-21T02:47:41.698Z,95436.81
2022-08-21T02:51:32.050Z,95432.17
2022-08-21T02:55:19.217Z,95431.30
2022-08-21T02:59:05.793Z,95438.26
2022-08-21T03:02:48.913Z,95440.33
2022-08-21T03:06:36.461Z,95448.37
2022-08-21T03:10:23.324Z,95446.27
2022-08-21T03:14:10.549Z,95443.03
2022-08-21T03:17:58.008Z,95433.91
2022-08-21T03:21:10.979Z,95436.34
2022-08-21T03:23:42.803Z,95437.15
2022-08-21T03:26:39.012Z,95435.69
2022-08-21T03:29:10.113Z,95426.41
2022-08-21T03:31:44.876Z,95413.10
2022-08-21T03:34:12.540Z,95411.42
2022-08-21T03:36:42.500Z,95411.45
2022-08-21T03:39:13.125Z,95410.39
2022-08-21T03:41:42.101Z,95411.45
2022-08-21T03:44:08.799Z,95411.84
2022-08-21T03:46:36.942Z,95408.96
2022-08-21T03:49:04.625Z,95409.48
2022-08-21T03:51:34.181Z,95405.38
2022-08-21T03:54:01.753Z,95407.14
2022-08-21T03:56:33.145Z,95405.58
2022-08-21T03:59:00.357Z,95402.21
2022-08-21T04:01:27.765Z,95400.52
2022-08-21T04:03:57.373Z,95394.66
2022-08-21T04:06:27.266Z,95392.63
2022-08-21T04:08:54.091Z,95390.19
2022-08-21T04:11:21.092Z,95389.59
2022-08-21T04:13:50.348Z,95390.07
2022-08-21T04:16:17.051Z,95388.77
2022-08-21T04:18:43.778Z,95383.05
2022-08-21T04:21:12.316Z,95379.84
2022-08-21T04:23:40.394Z,95381.86
2022-08-21T04:26:07.374Z,95385.05
2022-08-21T04:28:34.003Z,95390.05
2022-08-21T04:31:00.648Z,95392.02
2022-08-21T04:33:28.324Z,95391.39
2022-08-21T04:35:55.196Z,95391.17
2022-08-21T04:38:22.295Z,95390.02
2022-08-21T04:40:50.445Z,95392.95
2022-08-21T04:43:19.270Z,95396.91
2022-08-21T04:45:49.556Z,95401.50
2022-08-21T04:48:20.452Z,95397.71
2022-08-21T04:51:06.733Z,95394.90
2022-08-21T04:53:57.780Z,95390.91
2022-08-21T04:56:31.725Z,95391.58
2022-08-21T04:59:04.116Z,95399.06
2022-08-21T05:01:35.115Z,95402.05
2022-08-21T05:04:06.054Z,95404.04
2022-08-21T05:06:39.565Z,95408.33
2022-08-21T05:09:09.658Z,95402.72
2022-08-21T05:11:38.045Z,95401.52
2022-08-21T05:14:21.429Z,95412.06
2022-08-21T05:16:49.298Z,95424.91
2022-08-21T05:19:20.343Z,95422.35
2022-08-21T05:21:50.636Z,95418.23
2022-08-21T05:24:24.843Z,95419.86
2022-08-21T05:26:52.997Z,95427.86
2022-08-21T05:29:20.427Z,95440.15
2022-08-21T05:31:48.283Z,95445.82
2022-08-21T05:34:18.831Z,95445.42
2022-08-21T05:36:46.352Z,95441.34
2022-08-21T05:39:13.943Z,95442.73
2022-08-21T05:41:40.774Z,95443.50
2022-08-21T05:44:10.081Z,95446.43
2022-08-21T05:46:39.187Z,95445.48
2022-08-21T05:49:05.885Z,95451.11
2022-08-21T05:51:32.520Z,95450.60
2022-08-21T05:53:59.824Z,95454.06
2022-08-21T05:56:26.578Z,95455.38
2022-08-21T05:58:54.084Z,95460.01
2022-08-21T06:01:21.318Z,95462.17
2022-08-21T06:03:49.145Z,95467.54
2022-08-21T06:06:16.174Z,95467.79
2022-08-21T06:08:43.443Z,95474.04
2022-08-21T06:11:11.085Z,95473.48
2022-08-21T06:13:39.288Z,95467.59
2022-08-21T06:16:16.030Z,95463.52
2022-08-21T06:18:44.823Z,95460.25
2022-08-21T06:21:13.747Z,95454.89
2022-08-21T06:23:41.557Z,95453.11
2022-08-21T06:26:09.138Z,95458.15
2022-08-21T06:28:37.489Z,95459.48
2022-08-21T06:31:30.639Z,95459.48
2022-08-21T06:33:57.904Z,95459.85
2022-08-21T06:36:25.078Z,95457.10
2022-08-21T06:38:51.978Z,95455.79
2022-08-21T06:41:23.820Z,95457.58
2022-08-21T06:43:51.177Z,95451.88
2022-08-21T06:46:17.861Z,95451.30
2022-08-21T06:48:44.548Z,95446.48
2022-08-21T06:51:11.541Z,95441.95
2022-08-21T06:53:38.482Z,95439.64
2022-08-21T06:56:05.510Z,95443.02
2022-08-21T06:58:32.761Z,95443.08
2022-08-21T07:01:01.138Z,95441.61
2022-08-21T07:03:37.390Z,95438.05
2022-08-21T07:06:06.755Z,95439.48
2022-08-21T07:08:34.323Z,95434.64
2022-08-21T07:11:03.696Z,95432.07
2022-08-21T07:13:30.492Z,95431.64
2022-08-21T07:16:01.620Z,95435.27
2022-08-21T07:18:30.572Z,95433.08
2022-08-21T07:20:57.321Z,95430.44
2022-08-21T07:23:28.473Z,95429.77
2022-08-21T07:25:55.821Z,95431.04
2022-08-21T07:28:23.209Z,95433.02
2022-08-21T07:31:00.105Z,95430.20
2022-08-21T07:33:28.753Z,95428.48
2022-08-21T07:35:55.723Z,95426.27
2022-08-21T07:38:23.443Z,95421.59
2022-08-21T07:40:53.368Z,95419.36
2022-08-21T07:43:22.055Z,95419.98
2022-08-21T07:45:54.332Z,95421.63
2022-08-21T07:48:24.390Z,95420.79
2022-08-21T07:50:51.583Z,95423.13
2022-08-21T07:53:18.301Z,95424.38
2022-08-21T07:55:45.013Z,95424.58
2022-08-21T07:58:11.602Z,95422.39
2022-08-21T08:00:38.267Z,95420.68
2022-08-21T08:03:04.917Z,95420.19
2022-08-21T08:05:32.471Z,95421.92
2022-08-21T08:07:59.236Z,95422.23
2022-08-21T08:10:26.813Z,95422.47
2022-08-21T08:12:54.942Z,95416.93
2022-08-21T08:15:28.324Z,95414.73
2022-08-21T08:17:57.169Z,95416.33
2022-08-21T08:20:27.076Z,95414.10
2022-08-21T08:22:55.642Z,95415.98
2022-08-21T08:25:23.738Z,95419.95
2022-08-21T08:27:50.505Z,95418.83
2022-08-21T08:30:19.213Z,95416.48
2022-08-21T08:32:47.025Z,95417.41
2022-08-21T08:35:14.697Z,95418.29
2022-08-21T08:37:43.691Z,95412.64
2022-08-21T08:40:43.028Z,95412.61
2022-08-21T08:43:13.457Z,95417.71
2022-08-21T08:45:47.124Z,95418.41
2022-08-21T08:48:31.868Z,95415.44
2022-08-21T08:51:01.518Z,95412.48
2022-08-21T08:53:46.542Z,95410.16
2022-08-21T08:56:15.037Z,95410.91
2022-08-21T08:58:45.303Z,95409.86
2022-08-21T09:01:21.508Z,95406.48
2022-08-21T09:03:52.259Z,95408.02
2022-08-21T09:06:45.323Z,95409.42
2022-08-21T09:10:10.028Z,95409.11
2022-08-21T09:12:52.117Z,95404.84
2022-08-21T09:15:32.722Z,95403.95
2022-08-21T09:18:23.585Z,95398.36
2022-08-21T09:21:18.532Z,95393.89
2022-08-21T09:24:10.937Z,95390.40
2022-08-21T09:26:43.827Z,95391.56
2022-08-21T09:29:12.229Z,95386.67
2022-08-21T09:31:39.062Z,95380.54
2022-08-21T09:34:15.119Z,95375.73
2022-08-21T09:36:45.477Z,95370.17
2022-08-21T09:39:14.321Z,95371.41
2022-08-21T09:41:41.069Z,95366.20
2022-08-21T09:44:09.417Z,95363.21
2022-08-21T09:46:36.876Z,95364.05
2022-08-21T09:49:06.003Z,95367.27
2022-08-21T09:51:37.261Z,95365.27
2022-08-21T09:54:07.181Z,95364.86
2022-08-21T09:56:59.453Z,95362.44
2022-08-21T09:59:35.688Z,95362.86
2022-08-21T10:02:32.605Z,95363.02
2022-08-21T10:05:09.154Z,95356.60
2022-08-21T10:07:40.327Z,95352.41
2022-08-21T10:10:31.442Z,95357.75
2022-08-21T10:13:16.601Z,95357.58
2022-08-21T10:16:15.529Z,95356.90
2022-08-21T10:19:03.819Z,95357.61
2022-08-21T10:22:10.508Z,95355.65
2022-08-21T10:24:47.036Z,95355.14
2022-08-21T10:27:38.727Z,95352.38
2022-08-21T10:30:27.860Z,95350.48
2022-08-21T10:33:22.730Z,95349.21
2022-08-21T10:36:11.735Z,95344.54
2022-08-21T10:39:35.882Z,95345.86
2022-08-21T10:42:28.053Z,95345.22
2022-08-21T10:45:42.924Z,95341.21
2022-08-21T10:48:23.623Z,95336.50
2022-08-21T10:51:06.709Z,95333.14
2022-08-21T10:53:57.991Z,95329.31
2022-08-21T10:56:39.750Z,95328.59
2022-08-21T10:59:38.648Z,95324.25
2022-08-21T11:02:16.316Z,95329.02
2022-08-21T11:05:01.236Z,95329.67
2022-08-21T11:07:44.164Z,95325.13
2022-08-21T11:10:22.537Z,95322.72
2022-08-21T11:13:08.640Z,95323.45
2022-08-21T11:15:44.857Z,95321.90
2022-08-21T11:18:48.508Z,95318.55
2022-08-21T11:21:44.371Z,95317.77
2022-08-21T11:25:01.805Z,95314.52
2022-08-21T11:27:31.823Z,95311.56
2022-08-21T11:30:06.626Z,95311.08
2022-08-21T11:33:24.104Z,95309.14
2022-08-21T11:36:47.084Z,95311.18
2022-08-21T11:39:41.722Z,95309.06
2022-08-21T11:42:31.078Z,95305.50
2022-08-21T11:45:53.633Z,95302.08
2022-08-21T11:48:55.333Z,95298.67
2022-08-21T11:52:46.932Z,95296.55
2022-08-21T11:55:23.703Z,95296.10
2022-08-21T11:58:52.282Z,95296.95
2022-08-21T12:02:23.495Z,95294.21
2022-08-21T12:06:04.186Z,95290.21
2022-08-21T12:09:28.094Z,95288.73
2022-08-21T12:13:40.699Z,95287.14
2022-08-21T12:17:31.955Z,95278.43
2022-08-21T12:21:04.576Z,95275.13
2022-08-21T12:24:42.308Z,95274.77
2022-08-21T12:28:31.968Z,95272.40
2022-08-21T12:31:20.333Z,95265.97
2022-08-21T12:35:06.899Z,95264.84
2022-08-21T12:38:34.359Z,95263.83
2022-08-21T12:42:07.025Z,95261.71
2022-08-21T12:45:47.701Z,95253.69
2022-08-21T12:49:26.794Z,95252.14
2022-08-21T12:53:03.893Z,95248.51
2022-08-21T12:56:30.971Z,95246.86
2022-08-21T13:00:17.565Z,95242.00
2022-08-21T13:03:46.030Z,95238.95
2022-08-21T13:07:30.929Z,95239.56
2022-08-21T13:11:17.813Z,95242.32
2022-08-21T13:15:15.354Z,95234.63
2022-08-21T13:18:46.398Z,95241.61
2022-08-21T13:22:03.975Z,95241.65
2022-08-21T13:26:10.304Z,95234.80
2022-08-21T13:29:28.060Z,95231.93
2022-08-21T13:32:56.933Z,95224.22
2022-08-21T13:36:45.624Z,95221.98
2022-08-21T13:40:12.834Z,95221.69
2022-08-21T13:43:59.185Z,95221.00
2022-08-21T13:47:08.269Z,95229.81
2022-08-21T13:50:34.737Z,95236.95
2022-08-21T13:54:18.412Z,95234.98
2022-08-21T13:57:45.342Z,95233.50
2022-08-21T14:01:12.506Z,95228.05
2022-08-21T14:05:14.053Z,95221.50
2022-08-21T14:09:12.573Z,95221.13
2022-08-21T14:12:42.488Z,95230.96
2022-08-21T14:16:29.681Z,95235.84
2022-08-21T14:20:16.270Z,95234.67
2022-08-21T14:23:54.277Z,95221.64
2022-08-21T14:26:54.437Z,95224.02
2022-08-21T14:30:28.899Z,95232.93
2022-08-21T14:34:29.309Z,95230.44
2022-08-21T14:37:34.029Z,95221.20
2022-08-21T14:41:20.939Z,95222.06
2022-08-21T14:44:47.744Z,95223.09
2022-08-21T14:48:11.347Z,95214.98
2022-08-21T14:51:38.024Z,95213.86
2022-08-21T14:55:15.788Z,95194.72
2022-08-21T14:58:26.365Z,95177.63
2022-08-21T15:01:57.258Z,95165.38
2022-08-21T15:05:31.419Z,95162.50
2022-08-21T15:08:40.649Z,95173.11
2022-08-21T15:12:15.438Z,95193.41
2022-08-21T15:15:43.027Z,95202.05
2022-08-21T15:19:30.229Z,95201.52
2022-08-21T15:23:16.856Z,95194.76
2022-08-21T15:27:03.414Z,95188.51
2022-08-21T15:30:50.213Z,95183.15
2022-08-21T15:34:28.599Z,95182.49
2022-08-21T15:38:15.430Z,95189.31
2022-08-21T15:41:31.387Z,95208.36
2022-08-21T15:45:07.061Z,95222.24
2022-08-21T15:48:57.919Z,95225.45
2022-08-21T15:52:46.431Z,95239.00
2022-08-21T15:55:53.725Z,95244.60
2022-08-21T15:59:00.946Z,95242.19
2022-08-21T16:02:35.190Z,95241.92
2022-08-21T16:06:02.370Z,95249.65
2022-08-21T16:09:48.925Z,95255.29
2022-08-21T16:13:06.310Z,95251.09
2022-08-21T16:16:29.153Z,95251.23
2022-08-21T16:20:21.904Z,95250.55
2022-08-21T16:24:04.702Z,95246.92
2022-08-21T16:27:51.565Z,95240.77
2022-08-21T16:31:39.391Z,95231.88
2022-08-21T16:34:49.768Z,95234.16
2022-08-21T16:38:20.678Z,95239.55
2022-08-21T16:41:34.987Z,95251.67
2022-08-21T16:44:42.084Z,95257.21
2022-08-21T16:48:11.416Z,95260.76
2022-08-21T16:51:53.781Z,95259.38
2022-08-21T16:55:20.576Z,95260.55
2022-08-21T16:58:35.809Z,95261.20
2022-08-21T17:01:52.404Z,95265.69
2022-08-21T17:04:57.689Z,95269.92
2022-08-21T17:08:09.513Z,95274.02
2022-08-21T17:11:37.549Z,95279.04
2022-08-21T17:15:06.736Z,95275.33
2022-08-21T17:18:34.376Z,95268.92
2022-08-21T17:21:56.569Z,95260.02
2022-08-21T17:25:42.903Z,95259.91
2022-08-21T17:28:47.433Z,95264.56
2022-08-21T17:32:11.181Z,95268.42
2022-08-21T17:35:10.249Z,95268.44
2022-08-21T17:38:25.437Z,95269.65
2022-08-21T17:41:57.829Z,95274.79
2022-08-21T17:45:07.171Z,95276.73
2022-08-21T17:48:14.196Z,95273.63
2022-08-21T17:51:30.030Z,95273.04
2022-08-21T17:54:57.382Z,95274.62
2022-08-21T17:58:21.598Z,95284.36
2022-08-21T18:01:29.183Z,95291.73
2022-08-21T18:04:15.557Z,95295.54
2022-08-21T18:07:02.931Z,95300.98
2022-08-21T18:10:12.411Z,95296.11
2022-08-21T18:13:46.550Z,95296.46
2022-08-21T18:17:20.972Z,95295.66
2022-08-21T18:21:07.365Z,95298.90
2022-08-21T18:24:35.781Z,95304.64
2022-08-21T18:28:22.020Z,95311.39
2022-08-21T18:31:28.548Z,95308.41
2022-08-21T18:34:53.910Z,95306.05
2022-08-21T18:38:28.701Z,95308.48
2022-08-21T18:41:55.519Z,95306.57
2022-08-21T18:45:22.292Z,95307.72
2022-08-21T18:48:53.380Z,95303.16
2022-08-21T18:52:20.281Z,95301.69
2022-08-21T18:55:27.693Z,95306.04
2022-08-21T18:58:34.857Z,95312.89
2022-08-21T19:01:42.286Z,95313.02
2022-08-21T19:04:43.706Z,95309.10
2022-08-21T19:07:51.789Z,95304.92
2022-08-21T19:10:45.718Z,95304.54
2022-08-21T19:13:35.659Z,95297.55
2022-08-21T19:16:14.521Z,95294.20
2022-08-21T19:19:49.643Z,95291.92
2022-08-21T19:23:29.260Z,95291.39
2022-08-21T19:26:40.806Z,95291.05
2022-08-21T19:29:48.334Z,95289.68
2022-08-21T19:33:07.718Z,95287.09
2022-08-21T19:36:34.658Z,95284.30
2022-08-21T19:39:22.506Z,95281.58
2022-08-21T19:42:14.330Z,95278.38
2022-08-21T19:45:18.447Z,95277.41
2022-08-21T19:48:30.745Z,95278.13
2022-08-21T19:51:45.938Z,95279.23
2022-08-21T19:54:52.898Z,95282.40
2022-08-21T19:58:15.670Z,95283.30
2022-08-21T20:01:18.707Z,95281.44
2022-08-21T20:04:53.862Z,95282.77
2022-08-21T20:08:28.978Z,95280.73
2022-08-21T20:11:57.144Z,95283.33
2022-08-21T20:15:26.088Z,95283.80
2022-08-21T20:18:48.215Z,95285.12
2022-08-21T20:22:31.474Z,95290.48
2022-08-21T20:25:40.584Z,95296.21
2022-08-21T20:29:07.621Z,95297.27
2022-08-21T20:32:49.893Z,95290.31
2022-08-21T20:36:17.566Z,95283.98
2022-08-21T20:40:03.966Z,95289.98
2022-08-21T20:47:18.807Z,95288.48
2022-08-21T20:50:28.936Z,95284.31
2022-08-21T20:53:43.127Z,95276.73
2022-08-21T20:56:33.361Z,95270.18
2022-08-21T20:59:15.385Z,95269.16
2022-08-21T21:02:29.608Z,95260.41
2022-08-21T21:05:30.653Z,95260.99
2022-08-21T21:08:24.123Z,95262.85
2022-08-21T21:11:46.304Z,95266.10
2022-08-21T21:14:50.816Z,95264.67
2022-08-21T21:17:43.352Z,95264.58
2022-08-21T21:20:49.941Z,95264.17
2022-08-21T21:24:04.705Z,95265.28
2022-08-21T21:27:20.054Z,95264.69
2022-08-21T21:30:35.830Z,95263.15
2022-08-21T21:33:43.488Z,95265.54
2022-08-21T21:37:06.942Z,95260.45
2022-08-21T21:40:33.953Z,95248.96
2022-08-21T21:43:31.009Z,95251.41
2022-08-21T21:47:25.537Z,95248.67
2022-08-21T21:50:36.527Z,95252.21
2022-08-21T21:53:26.752Z,95254.46
2022-08-21T21:56:10.682Z,95254.44
2022-08-21T21:59:16.988Z,95251.76
2022-08-21T22:02:33.909Z,95252.59
2022-08-21T22:05:37.421Z,95254.30
2022-08-21T22:08:36.930Z,95255.23
2022-08-21T22:11:58.280Z,95260.60
2022-08-21T22:15:08.865Z,95258.73
2022-08-21T22:17:45.049Z,95256.51
2022-08-21T22:21:09.817Z,95260.58
2022-08-21T22:24:37.150Z,95257.68
2022-08-21T22:28:28.129Z,95251.45
2022-08-21T22:31:24.638Z,95252.67
2022-08-21T22:34:32.442Z,95248.39
2022-08-21T22:37:33.233Z,95244.95
2022-08-21T22:40:45.124Z,95244.81
2022-08-21T22:44:12.125Z,95245.71
2022-08-21T22:47:52.311Z,95247.85
2022-08-21T22:50:52.380Z,95247.02
2022-08-21T22:53:46.980Z,95249.41
2022-08-21T22:56:53.697Z,95247.53
2022-08-21T23:00:13.025Z,95246.92
2022-08-21T23:03:31.101Z,95248.52
2022-08-21T23:07:00.985Z,95246.74
2022-08-21T23:10:14.420Z,95251.28
2022-08-21T23:13:09.534Z,95254.75
2022-08-21T23:16:33.437Z,95255.30
2022-08-21T23:19:45.719Z,95255.38
2022-08-21T23:22:22.566Z,95260.90
2022-08-21T23:25:52.580Z,95261.34
2022-08-21T23:29:24.751Z,95263.59
2022-08-21T23:33:22.057Z,95269.48
2022-08-21T23:36:45.517Z,95272.75
2022-08-21T23:39:51.719Z,95269.58
2022-08-21T23:43:29.218Z,95271.36
2022-08-21T23:46:40.146Z,95275.14
2022-08-21T23:49:44.156Z,95272.73
2022-08-21T23:53:16.297Z,95273.02
2022-08-21T23:56:45.314Z,95274.61
2022-08-21T23:59:55.107Z,95273.16
